Time;durP1;ratioP1;P1;durP2;ratioP2;P2;SDS_P1;SDS_P2;PMS_P1;PMS_P2;Temp;Humidity;BMP_temperature;BMP_pressure;BME280_temperature;BME280_humidity;BME280_pressure;Samples;Min_cycle;Max_cycle;Signal;HPM_P1;HPM_P2
2022/11/04 00:01:55;;;;;;;20.48;10.82;;;;;;;13.22;50.03;95064.78;5028045;28;20826;-68
2022/11/04 00:04:23;;;;;;;16.73;10.05;;;;;;;13.22;49.91;95064.78;5027487;28;20248;-68
2022/11/04 00:06:49;;;;;;;21.40;10.88;;;;;;;13.21;50.12;95065.78;5029150;28;20198;-67
2022/11/04 00:09:18;;;;;;;19.30;10.48;;;;;;;12.86;51.21;95066.94;5028248;28;20245;-67
2022/11/04 00:14:29;;;;;;;15.82;10.15;;;;;;;12.76;51.74;95069.72;5024006;28;20193;-68
2022/11/04 00:30:35;;;;;;;16.42;10.65;;;;;;;12.91;51.29;95066.44;5029721;28;20293;-67
2022/11/04 00:35:49;;;;;;;17.52;10.88;;;;;;;12.58;52.10;95055.84;5028092;28;20232;-67
2022/11/04 00:38:15;;;;;;;15.18;11.10;;;;;;;12.68;51.66;95059.19;5027080;28;20218;-67
2022/11/04 00:40:40;;;;;;;16.02;10.40;;;;;;;12.70;51.81;95054.56;5028606;28;20190;-67
2022/11/04 00:43:06;;;;;;;16.80;10.95;;;;;;;12.54;52.19;95044.81;5026432;28;20186;-67
2022/11/04 00:45:31;;;;;;;19.38;11.98;;;;;;;12.62;52.01;95054.56;5026561;28;20227;-67
2022/11/04 00:47:57;;;;;;;14.25;11.23;;;;;;;12.52;52.04;95048.59;5023468;28;20190;-67
2022/11/04 00:50:23;;;;;;;16.98;10.82;;;;;;;12.54;52.05;95050.09;5025248;28;20253;-67
2022/11/04 00:52:48;;;;;;;18.90;10.57;;;;;;;12.57;52.21;95038.41;5028313;28;20661;-67
2022/11/04 00:55:13;;;;;;;14.50;10.82;;;;;;;12.44;52.73;95038.03;5025019;28;20861;-68
2022/11/04 00:57:39;;;;;;;17.67;11.15;;;;;;;12.46;52.36;95030.81;5029356;28;20182;-67
2022/11/04 01:00:06;;;;;;;18.48;11.20;;;;;;;12.31;52.63;95031.41;5027868;28;20306;-67
2022/11/04 01:02:31;;;;;;;15.98;11.02;;;;;;;12.29;52.86;95030.75;5029786;28;20217;-67
2022/11/04 01:04:56;;;;;;;16.38;11.20;;;;;;;12.31;53.12;95027.97;5027539;28;20214;-67
2022/11/04 01:07:22;;;;;;;13.57;10.70;;;;;;;12.30;53.02;95034.25;5026242;28;20194;-67
2022/11/04 01:09:48;;;;;;;17.42;10.82;;;;;;;12.34;52.50;95022.38;5029932;28;20201;-67
2022/11/04 01:12:15;;;;;;;17.40;10.30;;;;;;;12.31;52.94;95023.50;5033636;28;20553;-67
2022/11/04 01:14:41;;;;;;;16.67;11.25;;;;;;;12.27;52.61;95022.19;5033219;28;20190;-67
2022/11/04 01:17:07;;;;;;;16.05;10.75;;;;;;;12.18;52.94;95019.69;5034161;28;20186;-67
2022/11/04 01:19:32;;;;;;;16.92;10.73;;;;;;;12.14;53.35;95019.22;5031292;28;20260;-67
2022/11/04 01:21:58;;;;;;;18.30;10.65;;;;;;;11.95;53.99;95022.09;5027997;28;20182;-67
2022/11/04 01:24:23;;;;;;;15.75;10.30;;;;;;;12.01;53.63;95013.56;5033167;28;20280;-67
2022/11/04 01:26:48;;;;;;;15.95;10.73;;;;;;;11.95;53.84;94996.59;5032442;28;20190;-67
2022/11/04 01:29:14;;;;;;;17.63;10.25;;;;;;;11.98;53.80;94998.09;5026592;28;20194;-67
2022/11/04 01:31:39;;;;;;;17.48;11.07;;;;;;;12.14;53.30;94993.66;5032696;28;20192;-67
2022/11/04 01:34:05;;;;;;;22.80;11.07;;;;;;;11.98;53.86;95006.81;5033532;28;20241;-66
2022/11/04 01:36:30;;;;;;;14.75;10.48;;;;;;;11.87;53.71;94994.75;5031309;28;20697;-67
2022/11/04 01:38:56;;;;;;;18.48;10.57;;;;;;;11.84;54.13;94988.94;5032758;28;20190;-67
2022/11/04 01:41:24;;;;;;;15.45;9.85;;;;;;;11.86;54.11;95005.44;5024065;28;20186;-68
2022/11/04 01:43:51;;;;;;;14.27;10.48;;;;;;;11.77;54.27;94999.31;5029053;28;20262;-69
2022/11/04 01:46:32;;;;;;;16.70;10.50;;;;;;;11.73;54.50;95003.22;5030802;28;20250;-67
2022/11/04 01:49:25;;;;;;;14.40;10.48;;;;;;;11.51;55.36;94996.72;5030524;28;20257;-67
2022/11/04 01:51:56;;;;;;;19.40;11.32;;;;;;;11.55;55.24;95002.50;4957065;28;20692;-67
2022/11/04 01:54:21;;;;;;;16.60;10.27;;;;;;;11.44;55.49;94993.91;4957776;28;20192;-67
2022/11/04 01:56:48;;;;;;;20.00;11.63;;;;;;;11.49;55.04;94985.50;4957183;28;20310;-67
2022/11/04 01:59:21;;;;;;;15.35;10.65;;;;;;;11.54;55.14;94982.41;4957084;28;20201;-67
2022/11/04 02:01:46;;;;;;;18.73;10.35;;;;;;;11.61;54.89;94997.44;4956977;28;20204;-67
2022/11/04 02:04:25;;;;;;;16.98;11.20;;;;;;;11.54;54.97;94985.88;4956962;28;20196;-67
2022/11/04 02:06:55;;;;;;;18.95;11.32;;;;;;;11.53;55.27;94994.75;4956798;28;20597;-67
2022/11/04 02:09:22;;;;;;;15.68;10.85;;;;;;;11.58;54.78;94981.13;4956925;28;20283;-67
2022/11/04 02:14:34;;;;;;;15.43;11.57;;;;;;;11.38;55.47;94978.72;4972746;28;20236;-67
2022/11/04 02:17:17;;;;;;;15.13;10.60;;;;;;;11.34;55.54;94980.03;4955308;28;20219;-67
2022/11/04 02:20:14;;;;;;;16.27;11.07;;;;;;;11.29;55.43;94973.59;4957045;28;20282;-67
2022/11/04 02:22:57;;;;;;;14.68;10.20;;;;;;;11.25;55.52;94973.91;4954706;28;20196;-67
2022/11/04 02:25:31;;;;;;;16.10;10.73;;;;;;;11.19;55.87;94974.50;4952655;28;20204;-67
2022/11/04 02:28:45;;;;;;;15.48;11.35;;;;;;;11.41;55.39;94986.31;4963758;28;20188;-67
2022/11/04 02:31:31;;;;;;;17.00;11.02;;;;;;;11.32;55.35;94968.00;4962291;28;20243;-68
2022/11/04 02:34:18;;;;;;;15.27;10.40;;;;;;;11.26;55.62;94975.53;4970711;28;20199;-66
2022/11/04 02:36:55;;;;;;;16.00;10.85;;;;;;;11.30;55.55;94964.69;4954370;28;20327;-66
2022/11/04 02:39:46;;;;;;;15.18;10.45;;;;;;;11.51;55.01;94972.19;4953417;28;20257;-67
2022/11/04 02:42:15;;;;;;;19.85;10.88;;;;;;;11.29;55.49;94971.78;4956030;28;20188;-67
2022/11/04 02:44:57;;;;;;;18.02;11.45;;;;;;;11.28;55.58;94962.25;4957706;28;20663;-67
2022/11/04 02:47:29;;;;;;;16.83;10.77;;;;;;;11.19;56.04;94971.88;4960350;28;20211;-67
2022/11/04 02:50:08;;;;;;;15.32;11.32;;;;;;;11.02;56.29;94951.75;4952875;28;20636;-67
2022/11/04 02:52:48;;;;;;;19.35;11.40;;;;;;;11.12;56.38;94967.41;4940188;28;20212;-67
2022/11/04 02:55:22;;;;;;;13.60;10.60;;;;;;;10.99;56.01;94957.31;4988377;28;20943;-67
2022/11/04 02:57:52;;;;;;;15.63;10.93;;;;;;;10.98;56.67;94964.34;4955873;28;20766;-67
2022/11/04 03:00:20;;;;;;;16.80;11.27;;;;;;;10.93;57.20;94965.81;4958085;28;20227;-66
2022/11/04 03:02:48;;;;;;;15.88;11.75;;;;;;;10.97;56.91;94960.09;4956136;28;20214;-66
2022/11/04 03:05:21;;;;;;;17.52;11.60;;;;;;;10.94;56.80;94962.22;4970469;28;20683;-67
2022/11/04 03:07:50;;;;;;;22.23;11.55;;;;;;;10.98;56.69;94960.91;5023512;28;20190;-66
2022/11/04 03:10:22;;;;;;;13.98;11.40;;;;;;;11.02;56.94;94962.25;5029574;28;20240;-66
2022/11/04 03:13:09;;;;;;;16.70;11.13;;;;;;;11.17;56.22;94965.97;5027648;28;20196;-66
2022/11/04 03:15:38;;;;;;;15.30;10.68;;;;;;;10.94;56.66;94965.66;5032791;28;20182;-66
2022/11/04 03:18:42;;;;;;;17.60;11.43;;;;;;;10.84;56.98;94974.63;5031509;28;20193;-66
2022/11/04 03:21:11;;;;;;;15.73;11.25;;;;;;;10.75;57.69;94968.50;4969554;28;20691;-66
2022/11/04 03:23:38;;;;;;;17.08;10.57;;;;;;;10.79;57.21;94973.28;4973934;28;20212;-66
2022/11/04 03:26:20;;;;;;;18.60;11.02;;;;;;;10.80;57.28;94963.63;4957248;28;20323;-66
2022/11/04 03:29:11;;;;;;;17.70;11.57;;;;;;;10.85;56.99;94974.47;4982456;28;20323;-66
2022/11/04 03:32:03;;;;;;;16.50;11.43;;;;;;;10.86;57.30;94972.69;4970715;28;20200;-66
2022/11/04 03:34:29;;;;;;;20.08;13.05;;;;;;;10.80;57.37;94963.63;4985332;28;20195;-66
2022/11/04 03:37:00;;;;;;;19.60;12.68;;;;;;;10.98;57.07;94963.53;4970976;28;20614;-66
2022/11/04 03:39:26;;;;;;;17.83;11.65;;;;;;;10.84;57.07;94969.38;4983535;28;20237;-66
2022/11/04 03:42:01;;;;;;;18.45;11.65;;;;;;;10.75;57.84;94973.75;4973936;28;20199;-68
2022/11/04 03:44:28;;;;;;;14.23;11.55;;;;;;;10.80;57.51;94960.97;4973242;28;20219;-67
2022/11/04 03:46:54;;;;;;;17.60;12.00;;;;;;;10.72;57.67;94971.41;4972149;28;20728;-68
2022/11/04 03:49:23;;;;;;;17.27;12.00;;;;;;;10.74;57.85;94958.94;4971193;28;20234;-66
2022/11/04 03:51:50;;;;;;;15.15;11.07;;;;;;;10.74;57.70;94970.28;4970929;28;20192;-68
2022/11/04 03:54:17;;;;;;;16.75;12.57;;;;;;;10.65;57.89;94965.13;4978054;28;20206;-66
2022/11/04 03:56:55;;;;;;;18.55;12.13;;;;;;;10.56;58.25;94962.44;5027968;28;20178;-68
2022/11/04 03:59:42;;;;;;;15.90;11.88;;;;;;;10.40;58.71;94957.06;5028002;28;20566;-66
2022/11/04 04:02:36;;;;;;;20.52;11.45;;;;;;;10.47;58.30;94962.53;5027862;28;20273;-65
2022/11/04 04:05:27;;;;;;;16.48;12.35;;;;;;;10.24;58.88;94956.91;4946772;28;20278;-66
2022/11/04 04:08:19;;;;;;;15.13;11.73;;;;;;;10.49;58.97;94953.53;4948928;28;20192;-66
2022/11/04 04:10:53;;;;;;;15.02;11.27;;;;;;;10.41;58.65;94952.63;4952619;28;20200;-66
2022/11/04 04:13:19;;;;;;;16.70;11.93;;;;;;;10.39;58.94;94960.66;4957476;28;20235;-67
2022/11/04 04:15:54;;;;;;;14.20;12.05;;;;;;;10.51;58.67;94951.56;4950941;28;20228;-66
2022/11/04 04:18:29;;;;;;;19.92;12.25;;;;;;;10.45;58.62;94954.81;4967501;28;20184;-66
2022/11/04 04:20:58;;;;;;;16.90;11.27;;;;;;;10.34;58.46;94944.50;4968895;28;20298;-66
2022/11/04 04:29:03;;;;;;;21.02;13.07;;;;;;;10.30;59.07;94951.88;4973189;28;20271;-66
2022/11/04 04:31:48;;;;;;;21.80;12.90;;;;;;;10.16;59.61;94942.72;4954549;28;20192;-67
2022/11/04 04:34:27;;;;;;;15.57;12.57;;;;;;;10.06;59.68;94955.09;4969825;28;20223;-66
2022/11/04 04:37:04;;;;;;;15.77;12.20;;;;;;;10.12;59.81;94956.28;4960306;28;20191;-66
2022/11/04 04:45:10;;;;;;;15.20;11.63;;;;;;;9.97;60.45;94950.75;5024033;28;20209;-67
2022/11/04 04:47:44;;;;;;;20.10;11.67;;;;;;;9.97;60.19;94957.78;5025088;28;20259;-67
2022/11/04 04:50:13;;;;;;;18.10;13.33;;;;;;;10.03;60.01;94960.66;5023093;28;20562;-67
2022/11/04 04:52:45;;;;;;;17.87;12.70;;;;;;;10.02;60.25;94960.78;5028914;28;20256;-66
2022/11/04 04:55:12;;;;;;;15.90;12.57;;;;;;;9.89;60.70;94950.66;5028408;28;20190;-67
2022/11/04 04:57:38;;;;;;;17.70;13.70;;;;;;;9.97;60.42;94956.00;5029116;28;20969;-67
2022/11/04 05:00:06;;;;;;;22.15;14.07;;;;;;;10.05;60.04;94957.84;5023378;28;20218;-67
2022/11/04 05:02:31;;;;;;;18.52;13.23;;;;;;;10.03;59.64;94954.56;5024007;28;20194;-68
2022/11/04 05:04:58;;;;;;;21.20;13.10;;;;;;;10.07;59.59;94954.09;5027821;28;20259;-68
2022/11/04 05:07:24;;;;;;;20.83;12.97;;;;;;;9.96;59.93;94943.84;5026197;28;20186;-68
2022/11/04 05:09:50;;;;;;;19.47;13.17;;;;;;;9.94;59.89;94956.28;5026333;28;20175;-69
2022/11/04 05:12:16;;;;;;;18.63;14.20;;;;;;;10.12;59.21;94958.91;5027665;28;20194;-69
2022/11/04 05:14:41;;;;;;;20.30;13.13;;;;;;;9.89;59.80;94963.78;5028416;28;20178;-69
2022/11/04 05:17:07;;;;;;;17.70;14.03;;;;;;;9.93;60.13;94962.53;5023038;28;20666;-69
2022/11/04 05:19:32;;;;;;;17.50;14.38;;;;;;;9.89;60.44;94958.53;5027072;28;20195;-70
2022/11/04 05:21:58;;;;;;;19.80;13.80;;;;;;;10.07;60.10;94964.63;5024995;28;20186;-69
2022/11/04 05:24:23;;;;;;;17.20;13.23;;;;;;;9.87;60.25;94968.38;5024836;28;20214;-69
2022/11/04 05:26:49;;;;;;;20.35;14.75;;;;;;;9.94;60.44;94962.38;5026495;28;20242;-69
2022/11/04 05:29:14;;;;;;;19.85;14.18;;;;;;;9.86;60.41;94964.94;5026478;28;20195;-69
2022/11/04 05:31:39;;;;;;;20.40;14.87;;;;;;;9.90;60.48;94968.91;5025717;28;20232;-69
2022/11/04 05:34:05;;;;;;;24.63;14.33;;;;;;;9.90;60.82;94965.44;5028103;28;20277;-69
2022/11/04 05:36:34;;;;;;;25.05;14.25;;;;;;;10.01;60.35;94977.53;5026926;28;20662;-69
2022/11/04 05:38:59;;;;;;;21.77;15.38;;;;;;;10.19;59.86;94981.00;5024742;28;20202;-68
2022/11/04 05:41:25;;;;;;;26.27;16.48;;;;;;;10.10;60.38;94980.09;5019115;28;20199;-69
2022/11/04 05:43:54;;;;;;;24.75;15.98;;;;;;;10.17;60.06;94982.94;5020265;28;20182;-67
2022/11/04 05:46:21;;;;;;;21.05;15.48;;;;;;;10.11;60.83;94981.75;5030140;28;20203;-68
2022/11/04 05:48:46;;;;;;;21.15;15.85;;;;;;;10.20;60.29;94993.16;5024207;28;20234;-69
2022/11/04 05:51:17;;;;;;;21.87;16.37;;;;;;;10.35;59.91;94996.13;5019614;28;20659;-68
2022/11/04 05:53:43;;;;;;;22.02;16.88;;;;;;;10.29;60.12;94994.06;5024975;28;20197;-67
2022/11/04 05:56:09;;;;;;;22.08;16.98;;;;;;;10.15;61.14;95001.47;5024968;28;20191;-67
2022/11/04 05:58:34;;;;;;;28.80;17.20;;;;;;;10.44;60.26;94995.22;5031574;28;20197;-68
2022/11/04 06:01:23;;;;;;;23.77;16.43;;;;;;;10.27;60.86;95002.13;5027852;28;20174;-68
2022/11/04 06:03:49;;;;;;;27.25;16.65;;;;;;;10.30;60.51;95003.63;5025839;28;20213;-68
2022/11/04 06:06:14;;;;;;;29.73;16.73;;;;;;;10.40;60.25;95003.53;5030816;28;20202;-67
2022/11/04 06:08:40;;;;;;;20.80;16.67;;;;;;;10.37;60.04;95002.88;5026593;28;20248;-67
2022/11/04 06:11:06;;;;;;;22.92;17.60;;;;;;;10.50;60.23;95009.53;5023525;28;20278;-69
2022/11/04 06:13:32;;;;;;;24.27;17.80;;;;;;;10.44;59.90;94999.66;5023673;28;20524;-66
2022/11/04 06:15:57;;;;;;;21.00;18.00;;;;;;;10.55;60.50;94999.41;5021358;28;20244;-68
2022/11/04 06:18:22;;;;;;;27.23;17.75;;;;;;;10.65;60.83;94991.44;5023378;28;20220;-68
2022/11/04 06:20:48;;;;;;;22.80;17.35;;;;;;;10.52;61.47;94995.28;5017545;28;20233;-69
2022/11/04 06:23:13;;;;;;;25.90;19.08;;;;;;;10.59;61.94;94998.97;5020802;28;20183;-68
2022/11/04 06:25:39;;;;;;;23.02;18.30;;;;;;;10.58;62.19;95005.22;5020438;28;20328;-67
2022/11/04 06:28:04;;;;;;;22.23;18.85;;;;;;;10.37;63.56;95004.66;5024198;28;20193;-69
2022/11/04 06:30:29;;;;;;;22.88;18.40;;;;;;;10.24;63.80;95001.59;5022933;28;20265;-67
2022/11/04 06:32:55;;;;;;;23.50;18.27;;;;;;;10.67;62.86;95000.00;5015776;28;20237;-68
2022/11/04 06:35:20;;;;;;;27.85;19.23;;;;;;;10.57;63.04;95000.09;5020148;28;20637;-68
2022/11/04 06:37:46;;;;;;;23.45;18.75;;;;;;;10.71;62.89;95001.34;5025144;28;20239;-66
2022/11/04 06:40:11;;;;;;;24.27;20.10;;;;;;;10.65;63.00;95001.97;5024748;28;20191;-66
2022/11/04 06:42:37;;;;;;;22.27;19.33;;;;;;;10.71;63.00;94993.44;5025809;28;20183;-68
2022/11/04 06:45:03;;;;;;;24.57;19.77;;;;;;;11.08;61.60;95006.38;5023176;28;20202;-66
2022/11/04 06:47:29;;;;;;;23.40;19.73;;;;;;;11.38;60.44;95002.41;5021848;28;20189;-66
2022/11/04 06:49:54;;;;;;;20.90;18.70;;;;;;;11.27;60.74;94994.78;5023420;28;20256;-66
2022/11/04 06:52:20;;;;;;;26.00;20.42;;;;;;;11.44;60.34;95009.69;5020883;28;20210;-67
2022/11/04 06:54:46;;;;;;;23.17;20.38;;;;;;;11.47;59.90;94996.22;5023296;28;20190;-66
2022/11/04 06:57:12;;;;;;;26.75;20.00;;;;;;;11.63;59.43;95008.63;5020711;28;20210;-67
2022/11/04 06:59:38;;;;;;;22.80;19.45;;;;;;;11.71;59.00;94999.94;5021672;28;20513;-69
2022/11/04 07:02:03;;;;;;;22.25;18.98;;;;;;;11.69;59.12;95000.09;5022290;28;20338;-68
2022/11/04 07:04:29;;;;;;;30.58;20.45;;;;;;;11.91;58.51;94997.88;5021362;28;20285;-68
2022/11/04 07:06:54;;;;;;;28.10;19.77;;;;;;;11.98;58.04;94998.09;5023010;28;20191;-69
2022/11/04 07:09:20;;;;;;;26.00;21.10;;;;;;;11.98;58.29;94998.91;5022953;28;20202;-69
2022/11/04 07:11:45;;;;;;;25.75;20.38;;;;;;;12.07;57.86;94994.47;5022798;28;20545;-67
2022/11/04 07:14:11;;;;;;;29.53;21.20;;;;;;;12.03;58.04;94995.75;5022708;28;20183;-68
2022/11/04 07:16:37;;;;;;;23.63;20.02;;;;;;;12.20;57.50;94983.47;5023136;28;20278;-68
2022/11/04 07:19:03;;;;;;;27.00;21.25;;;;;;;12.20;57.67;94986.91;5017573;28;20332;-69
2022/11/04 07:21:28;;;;;;;28.10;20.67;;;;;;;12.10;57.79;94976.50;5020576;28;20194;-69
2022/11/04 07:23:54;;;;;;;23.17;20.10;;;;;;;12.24;57.71;94987.41;5022014;28;20209;-69
2022/11/04 07:26:20;;;;;;;26.38;20.77;;;;;;;12.22;57.56;94978.88;5021810;28;20213;-66
2022/11/04 07:28:45;;;;;;;26.77;21.50;;;;;;;12.29;57.49;94970.13;5024720;28;20210;-67
2022/11/04 07:31:12;;;;;;;29.40;21.88;;;;;;;12.48;57.01;94969.00;5022097;28;20186;-66
2022/11/04 07:33:37;;;;;;;31.80;22.77;;;;;;;12.64;56.41;94972.59;5021207;28;20197;-69
2022/11/04 07:36:09;;;;;;;32.78;22.05;;;;;;;12.70;56.18;94969.31;5024416;28;20178;-68
2022/11/04 07:38:34;;;;;;;27.25;22.77;;;;;;;12.67;56.67;94959.06;5019060;28;20187;-68
2022/11/04 07:41:01;;;;;;;30.42;23.48;;;;;;;12.72;56.68;94964.69;5018819;28;20237;-69
2022/11/04 07:43:28;;;;;;;28.80;23.73;;;;;;;12.71;57.12;94963.88;5026267;28;20605;-69
2022/11/04 07:46:09;;;;;;;32.28;23.88;;;;;;;13.02;56.29;94948.16;5019445;28;20207;-69
2022/11/04 07:48:35;;;;;;;33.10;25.23;;;;;;;12.93;56.97;94948.34;5026464;28;20540;-67
2022/11/04 07:51:02;;;;;;;27.33;23.45;;;;;;;12.80;57.26;94954.13;5026868;28;20206;-68
2022/11/04 07:53:29;;;;;;;27.20;21.83;;;;;;;12.84;57.13;94957.28;5016552;28;20189;-69
2022/11/04 07:55:55;;;;;;;24.63;21.67;;;;;;;12.94;56.80;94940.25;5027175;28;20194;-70
2022/11/04 07:58:22;;;;;;;27.67;22.00;;;;;;;13.18;56.30;94960.50;5018475;28;20198;-68
2022/11/04 08:00:48;;;;;;;24.73;22.13;;;;;;;13.11;56.23;94943.69;5021573;28;20237;-68
2022/11/04 08:03:13;;;;;;;27.60;22.10;;;;;;;13.37;55.92;94950.56;5027277;28;20614;-69
2022/11/04 08:05:39;;;;;;;28.15;21.05;;;;;;;13.35;55.82;94948.09;5028647;28;20302;-70
2022/11/04 08:08:05;;;;;;;29.77;22.33;;;;;;;13.43;55.40;94934.84;5023192;28;20224;-69
2022/11/04 08:10:31;;;;;;;33.25;23.48;;;;;;;13.50;55.42;94942.94;5021377;28;20252;-68
2022/11/04 08:12:56;;;;;;;27.00;21.20;;;;;;;13.08;56.21;94932.66;5025036;28;20194;-69
2022/11/04 08:15:22;;;;;;;25.80;21.58;;;;;;;13.37;55.70;94932.91;5019149;28;20190;-69
2022/11/04 08:17:47;;;;;;;25.58;22.05;;;;;;;13.43;55.16;94936.69;5019903;28;20234;-69
2022/11/04 08:20:13;;;;;;;27.85;21.45;;;;;;;13.58;55.12;94937.63;5017436;28;20214;-68
2022/11/04 08:22:38;;;;;;;27.05;22.35;;;;;;;13.60;55.07;94927.69;5023045;28;20693;-69
2022/11/04 08:25:04;;;;;;;25.33;21.48;;;;;;;13.68;54.43;94926.81;5027052;28;20217;-68
2022/11/04 08:27:30;;;;;;;25.15;21.45;;;;;;;13.77;54.35;94915.22;5023225;28;20282;-70
2022/11/04 08:29:56;;;;;;;28.83;23.00;;;;;;;13.75;54.19;94916.41;5022039;28;20282;-68
2022/11/04 08:32:21;;;;;;;30.38;22.98;;;;;;;13.86;53.96;94922.09;5019125;28;20301;-70
2022/11/04 08:34:47;;;;;;;26.35;20.75;;;;;;;13.87;54.32;94909.69;5019855;28;20261;-71
2022/11/04 08:37:15;;;;;;;31.08;21.88;;;;;;;14.05;53.67;94904.97;5027846;28;20348;-70
2022/11/04 08:39:40;;;;;;;25.42;21.15;;;;;;;14.11;53.67;94909.56;5021935;28;20937;-70
2022/11/04 08:42:06;;;;;;;26.85;21.42;;;;;;;14.04;53.48;94900.69;5028638;28;20197;-70
2022/11/04 08:44:32;;;;;;;27.70;20.48;;;;;;;14.12;53.23;94905.09;5025004;28;20194;-71
2022/11/04 08:47:24;;;;;;;23.70;20.38;;;;;;;14.09;53.20;94903.63;5017259;28;20197;-69
2022/11/04 08:49:49;;;;;;;27.48;20.83;;;;;;;14.26;52.97;94903.50;5022372;28;20227;-69
2022/11/04 08:52:15;;;;;;;27.13;20.60;;;;;;;14.43;53.40;94896.25;5027053;28;20178;-69
2022/11/04 08:54:40;;;;;;;25.17;22.08;;;;;;;14.55;52.39;94898.31;5021013;28;20175;-69
2022/11/04 08:57:05;;;;;;;29.77;22.55;;;;;;;14.71;52.02;94888.59;5022569;28;20186;-70
2022/11/04 08:59:31;;;;;;;25.70;20.33;;;;;;;14.74;52.33;94885.59;5019423;28;20182;-69
2022/11/04 09:01:56;;;;;;;27.20;22.00;;;;;;;14.93;52.60;94887.69;5025802;28;20546;-70
2022/11/04 09:04:22;;;;;;;26.70;21.40;;;;;;;15.03;51.26;94889.28;5026396;28;20182;-69
2022/11/04 09:06:49;;;;;;;24.55;21.02;;;;;;;15.16;51.16;94895.56;5021941;28;20182;-69
2022/11/04 09:09:16;;;;;;;26.40;22.25;;;;;;;15.15;50.77;94879.84;5021140;28;20658;-68
2022/11/04 09:11:44;;;;;;;25.45;20.45;;;;;;;15.39;50.39;94876.91;5015142;28;20187;-73
2022/11/04 09:14:10;;;;;;;25.35;20.38;;;;;;;15.52;50.62;94878.09;5025756;28;20699;-68
2022/11/04 09:16:38;;;;;;;25.40;20.33;;;;;;;15.62;48.62;94868.00;5028424;28;20197;-72
2022/11/04 09:19:03;;;;;;;22.65;19.40;;;;;;;15.76;48.63;94869.81;5026622;28;20193;-70
2022/11/04 09:21:29;;;;;;;27.90;21.02;;;;;;;15.73;47.78;94862.25;5027250;28;20186;-69
2022/11/04 09:23:55;;;;;;;25.50;20.25;;;;;;;15.83;48.55;94848.72;5018384;28;20262;-73
2022/11/04 09:26:22;;;;;;;28.75;21.25;;;;;;;15.75;47.91;94862.91;5025789;28;20198;-69
2022/11/04 09:28:52;;;;;;;24.55;21.17;;;;;;;15.88;47.97;94859.56;5007891;28;20179;-69
2022/11/04 09:31:18;;;;;;;28.73;22.67;;;;;;;15.92;47.95;94858.16;5032156;28;20730;-67
2022/11/04 09:33:44;;;;;;;29.38;21.50;;;;;;;15.99;48.07;94837.84;5024971;28;20214;-68
2022/11/04 09:36:11;;;;;;;23.77;20.15;;;;;;;16.16;48.44;94838.41;5022956;28;20638;-68
2022/11/04 09:38:38;;;;;;;27.48;21.08;;;;;;;16.17;47.68;94848.03;5026398;28;20241;-70
2022/11/04 09:41:51;;;;;;;29.50;20.48;;;;;;;16.25;47.72;94836.44;5029493;28;20539;-67
2022/11/04 09:44:42;;;;;;;27.75;21.60;;;;;;;16.19;47.43;94837.19;4976523;28;20187;-70
2022/11/04 09:47:09;;;;;;;20.90;18.38;;;;;;;16.21;47.65;94828.03;4992955;28;20812;-70
2022/11/04 09:49:38;;;;;;;26.95;19.98;;;;;;;16.54;47.16;94824.81;4973514;28;20231;-70
2022/11/04 09:52:27;;;;;;;22.80;19.75;;;;;;;16.69;46.65;94808.81;4990955;28;20196;-72
2022/11/04 09:55:14;;;;;;;21.98;18.83;;;;;;;16.95;45.31;94797.56;4977386;28;20211;-70
2022/11/04 09:57:39;;;;;;;24.45;18.77;;;;;;;17.21;45.22;94799.50;4990993;28;20191;-70
2022/11/04 10:00:05;;;;;;;21.05;18.67;;;;;;;17.30;44.20;94792.19;4976728;28;20195;-71
2022/11/04 10:02:34;;;;;;;20.08;17.88;;;;;;;17.56;43.86;94789.63;4976592;28;20215;-71
2022/11/04 10:05:09;;;;;;;20.52;17.33;;;;;;;17.74;44.00;94783.72;4968601;28;20211;-68
2022/11/04 10:07:43;;;;;;;29.92;19.83;;;;;;;17.92;44.00;94777.03;4975619;28;20191;-68
2022/11/04 10:10:23;;;;;;;21.98;18.20;;;;;;;17.80;42.48;94776.81;4972367;28;20187;-68
2022/11/04 10:13:25;;;;;;;25.15;18.45;;;;;;;17.37;43.75;94779.75;4975987;28;20191;-68
2022/11/04 10:16:09;;;;;;;26.48;18.75;;;;;;;17.31;43.71;94767.25;5022118;28;20196;-68
2022/11/04 10:19:02;;;;;;;25.65;19.10;;;;;;;17.59;44.04;94765.31;5031179;28;20189;-68
2022/11/04 10:21:40;;;;;;;24.95;18.25;;;;;;;17.93;43.62;94763.53;5033120;28;20673;-72
2022/11/04 10:24:08;;;;;;;31.02;19.80;;;;;;;17.45;43.27;94760.13;5018977;28;20179;-72
2022/11/04 10:27:01;;;;;;;22.27;18.33;;;;;;;17.62;44.00;94746.28;5026965;28;20674;-72
2022/11/04 10:29:36;;;;;;;22.23;17.83;;;;;;;17.72;44.36;94750.38;5023768;28;20201;-71
2022/11/04 10:32:16;;;;;;;25.10;19.27;;;;;;;17.93;43.17;94738.78;5028331;28;20251;-72
2022/11/04 10:34:45;;;;;;;25.77;18.30;;;;;;;17.84;43.24;94732.84;5022619;28;20179;-71
2022/11/04 10:37:11;;;;;;;24.52;19.30;;;;;;;17.96;43.32;94725.06;5024783;28;20187;-71
2022/11/04 10:39:44;;;;;;;22.20;17.80;;;;;;;17.97;42.54;94724.06;5020006;28;20190;-71
2022/11/04 10:42:18;;;;;;;21.48;17.35;;;;;;;18.10;43.06;94718.72;5017898;28;20186;-69
2022/11/04 10:44:45;;;;;;;25.38;17.52;;;;;;;18.27;42.13;94714.59;5007197;28;20233;-69
2022/11/04 10:47:38;;;;;;;23.25;17.30;;;;;;;18.67;41.53;94716.38;5017772;28;20209;-70
2022/11/04 10:50:16;;;;;;;20.63;16.88;;;;;;;18.23;40.95;94705.41;5019607;28;20222;-69
2022/11/04 10:52:42;;;;;;;22.73;17.90;;;;;;;18.60;41.34;94702.25;5028058;28;20186;-70
2022/11/04 10:55:24;;;;;;;20.70;16.40;;;;;;;18.94;40.19;94688.66;5021331;28;20171;-69
2022/11/04 10:57:55;;;;;;;19.58;16.10;;;;;;;19.33;39.34;94692.16;5028993;28;20178;-70
2022/11/04 11:00:40;;;;;;;18.63;15.57;;;;;;;19.66;37.48;94682.31;5029811;28;20178;-70
2022/11/04 11:03:33;;;;;;;22.95;17.10;;;;;;;19.45;38.48;94672.81;5020798;28;20186;-70
2022/11/04 11:06:22;;;;;;;21.88;15.20;;;;;;;19.42;38.86;94674.06;4957839;28;20263;-70
2022/11/04 11:08:48;;;;;;;18.63;16.17;;;;;;;19.65;38.88;94654.84;4967683;28;20195;-69
2022/11/04 11:11:15;;;;;;;20.40;15.80;;;;;;;19.47;38.50;94654.75;4972648;28;20196;-70
2022/11/04 11:13:45;;;;;;;17.60;15.60;;;;;;;19.96;37.65;94653.16;4958109;28;20192;-70
2022/11/04 11:16:19;;;;;;;21.23;15.40;;;;;;;20.33;36.50;94655.91;4958154;28;20187;-70
2022/11/04 11:19:10;;;;;;;16.05;14.35;;;;;;;20.28;36.54;94646.69;4957955;28;20186;-70
2022/11/04 11:22:03;;;;;;;22.65;15.73;;;;;;;20.40;35.94;94643.31;4963673;28;20188;-70
2022/11/04 11:24:33;;;;;;;18.58;14.27;;;;;;;19.99;36.81;94642.06;4968895;28;20204;-71
2022/11/04 11:27:11;;;;;;;19.13;13.90;;;;;;;20.45;36.44;94636.25;4955432;28;20192;-70
2022/11/04 11:29:41;;;;;;;21.60;14.57;;;;;;;20.70;35.14;94622.84;4959598;28;20203;-68
2022/11/04 11:32:30;;;;;;;18.35;13.82;;;;;;;20.88;34.99;94613.19;4951327;28;20296;-69
2022/11/04 11:35:00;;;;;;;21.38;14.32;;;;;;;21.02;34.26;94598.59;4957228;28;20188;-70
2022/11/04 11:37:29;;;;;;;19.30;14.23;;;;;;;21.43;33.60;94591.66;4959050;28;20688;-70
2022/11/04 11:39:56;;;;;;;21.90;12.85;;;;;;;21.84;32.54;94589.16;4969393;28;20188;-68
2022/11/04 11:42:22;;;;;;;17.05;13.63;;;;;;;24.58;28.48;94582.94;4981267;28;20224;-70
2022/11/04 11:44:58;;;;;;;17.13;13.20;;;;;;;30.45;20.29;94584.19;5022562;28;20244;-69
2022/11/04 11:47:24;;;;;;;15.93;12.98;;;;;;;33.67;16.96;94587.13;5022747;28;20211;-69
2022/11/04 11:50:14;;;;;;;18.50;13.98;;;;;;;33.08;17.53;94586.22;5019421;28;20256;-69
2022/11/04 11:52:41;;;;;;;22.30;14.68;;;;;;;30.14;20.31;94575.50;5020935;28;20195;-69
2022/11/04 11:55:14;;;;;;;20.67;13.48;;;;;;;29.80;20.36;94573.59;5028180;28;20182;-72
2022/11/04 11:58:01;;;;;;;21.27;13.93;;;;;;;26.60;24.27;94567.25;5022878;28;20225;-71
2022/11/04 12:00:31;;;;;;;19.00;13.50;;;;;;;24.96;26.84;94555.13;5020654;28;20210;-69
2022/11/04 12:03:15;;;;;;;14.85;12.65;;;;;;;24.85;27.03;94558.78;5023313;28;20193;-68
2022/11/04 12:05:48;;;;;;;14.13;11.98;;;;;;;25.42;26.25;94560.19;5019936;28;20209;-68
2022/11/04 12:09:03;;;;;;;15.25;12.23;;;;;;;24.28;27.90;94564.50;5026862;28;20193;-69